Buoy 54955

sailwx.info

Track history (hours):
 
Tides and Currents Weather Stations Pressure Air Temp Water Temp Dewpoint Dewpoint Depression Visibility Wind Speed Wind Dir Waves Ship Positions

Luruyu54955

Last reported at 2017-Jan-23 19:00 UTC. Time now 2017-Jan-23 20:51 UTC.
Position S 34°49' W 145°31'.

Length 27 m.

Type: Fishing. MMSI: 412330945.

Barometer 1013.3 mb
Water temperature 20.3 ° C

Date/timePositionNaut miles runAvg speedWind from/ knotsBaromVisibWave heightAir tempDewpointWater temp
2017-Jan-23 19:00S 34°49' W 145°31'2 1.6 1013.3 20.3
2017-Jan-23 18:00S 34°48' W 145°29'1 0.6 1013.1 20.2
2017-Jan-23 17:00S 34°49' W 145°29'1 0.6 1012.9 20.2
2017-Jan-23 16:00S 34°48' W 145°29'2 1.6 1012.4 20.2
2017-Jan-23 15:00S 34°49' W 145°28'0 0.0 1012.1 20.2
2017-Jan-23 14:00S 34°49' W 145°28'0 0.5 1011.8 20.2
2017-Jan-23 13:00S 34°49' W 145°28'0 0.5 1011.7 20.2
2017-Jan-23 12:00S 34°49' W 145°28'0 0.5 1011.7 20.2
2017-Jan-23 11:00S 34°49' W 145°27'1 0.3 1012.0 20.2
2017-Jan-23 08:00S 34°50' W 145°28'1 0.8 1012.7 20.3
2017-Jan-23 07:00S 34°49' W 145°28'0 0.0 1012.6 20.3
2017-Jan-23 06:00S 34°49' W 145°28'0 0.0 1012.3 20.3
2017-Jan-23 05:00S 34°49' W 145°28'1 0.6 1011.6 20.4
2017-Jan-23 03:00S 34°48' W 145°29'2 2.4 1010.6 20.4
2017-Jan-23 02:00S 34°46' W 145°29'0 0.0 1010.4 20.4
2017-Jan-23 01:00S 34°46' W 145°29'0 0.5 1009.9 20.4
2017-Jan-23 00:00S 34°46' W 145°28'0 0.0 1010.1 20.4
2017-Jan-22 23:00S 34°46' W 145°28'3 0.8 1009.8 20.4
2017-Jan-22 19:00S 34°44' W 145°25'1 0.8 1008.2 20.2
2017-Jan-22 18:00S 34°44' W 145°25'0 0.5 1007.6 20.1
2017-Jan-22 17:00S 34°44' W 145°25'0 0.0 1007.0 20.1
2017-Jan-22 16:00S 34°44' W 145°25'0 0.0 1006.2 20.1
2017-Jan-22 14:00S 34°44' W 145°25'0 0.0 1003.9 20.1
2017-Jan-22 13:00S 34°44' W 145°25'1 1.2 1002.7 20.1
2017-Jan-22 12:00S 34°44' W 145°26'0 0.5 1002.0 20.1
2017-Jan-22 11:00S 34°44' W 145°27'2 0.5 1001.6 20.1
2017-Jan-22 07:00S 34°42' W 145°26'2 1.9 999.8 20.2
2017-Jan-22 06:00S 34°40' W 145°26'0 0.0 999.5 20.2
2017-Jan-22 05:00S 34°40' W 145°26'1 0.8 998.6 20.2
2017-Jan-22 04:00S 34°40' W 145°25'1 1.5 997.5 20.2
2017-Jan-22 03:00S 34°40' W 145°23'2 1.6 997.4 20.2
2017-Jan-22 02:00S 34°39' W 145°22'0 0.0 997.4 20.2
2017-Jan-22 01:00S 34°39' W 145°22'1 0.8 997.9 20.2
2017-Jan-22 00:00S 34°40' W 145°21'0 0.0 999.1 20.2
2017-Jan-21 23:00S 34°40' W 145°21'5 1.2 999.7 20.2
2017-Jan-21 19:00S 34°38' W 145°16'0 0.0 1002.8 20.2
2017-Jan-21 18:00S 34°38' W 145°16'1 0.6 1003.8 20.2
2017-Jan-21 17:00S 34°39' W 145°16'2 2.5 1004.5 20.1
2017-Jan-21 16:00S 34°39' W 145°13'0 0.5 1004.8 20.1
2017-Jan-21 15:00S 34°39' W 145°13'1 0.8 1005.2 20.1
2017-Jan-21 14:00S 34°40' W 145°13'1 0.8 1005.9 20.1
2017-Jan-21 13:00S 34°39' W 145°12'0 0.0 1006.3 20.1
2017-Jan-21 12:00S 34°39' W 145°12'0 0.0 1006.9 20.1
2017-Jan-21 11:00S 34°39' W 145°12'3 1.0 1007.6 20.1
2017-Jan-21 08:00S 34°39' W 145°08'0 0.0 1009.6 20.2
2017-Jan-21 07:00S 34°39' W 145°08'1 0.8 1010.1 20.2
2017-Jan-21 06:00S 34°38' W 145°08'1 0.8 1010.3 20.2
2017-Jan-21 05:00S 34°38' W 145°07'0 0.0 1010.4 20.2
2017-Jan-21 04:00S 34°38' W 145°07'2 1.6 1010.0 20.2
2017-Jan-21 03:00S 34°37' W 145°05'0 0.0 1009.5 20.2
2017-Jan-21 02:00S 34°37' W 145°05'0 0.5 1009.7 20.3
2017-Jan-21 01:00S 34°37' W 145°05'0 0.0 1010.2 20.3
2017-Jan-21 00:00S 34°37' W 145°05'4 0.7 1010.8 20.3
2017-Jan-20 19:00S 34°37' W 145°01'2 2.1 1013.6 20.4
2017-Jan-20 18:00S 34°36' W 144°58'0 0.0 1014.0 20.4
2017-Jan-20 17:00S 34°36' W 144°58'1 1.2 1014.1 20.4
2017-Jan-20 16:00S 34°35' W 144°57'0 0.5 1013.9 20.4
2017-Jan-20 15:00S 34°35' W 144°58'3 3.5 1013.7 20.4
2017-Jan-20 14:00S 34°35' W 144°53'0 0.2 1013.6 20.5
2017-Jan-20 12:00S 34°35' W 144°54'0 0.0 1013.4 20.6
2017-Jan-20 11:00S 34°35' W 144°54'1 0.6 1013.6 20.6
2017-Jan-20 09:00S 34°34' W 144°55'1 0.8 1014.7 20.6
2017-Jan-20 08:00S 34°34' W 144°54'0 0.0 1015.2 20.7
2017-Jan-20 07:00S 34°34' W 144°54'1 0.8 1015.5 20.7
2017-Jan-20 06:00S 34°33' W 144°53'0 0.0 1015.2 20.7
2017-Jan-20 04:00S 34°33' W 144°53'0 0.5 1014.8 20.7
2017-Jan-20 03:00S 34°33' W 144°53'0 0.5 1015.0 20.7
2017-Jan-20 02:00S 34°33' W 144°52'0 0.5 1015.7 20.7
2017-Jan-20 01:00S 34°33' W 144°53'2 2.3 1016.4 20.7
2017-Jan-20 00:00S 34°32' W 144°50'0 0.0 1017.0 20.6
2017-Jan-19 19:00S 34°32' W 144°50'0 0.0 1020.4 20.6
2017-Jan-19 18:00S 34°32' W 144°50'1 1.5 1020.5 20.6
2017-Jan-19 17:00S 34°32' W 144°49'0 0.5 1020.4 20.6
2017-Jan-19 16:00S 34°32' W 144°48'1 1.0 1020.3 20.5
2017-Jan-19 15:00S 34°32' W 144°47'1 0.6 1020.4 20.5
2017-Jan-19 14:00S 34°31' W 144°47'0 0.0 1020.0 20.5
2017-Jan-19 12:00S 34°31' W 144°47'1 0.6 1020.0 20.5
2017-Jan-19 11:00S 34°32' W 144°47'1 0.2 1020.5 20.6
2017-Jan-19 08:00S 34°31' W 144°47'0 0.5 1021.5 20.6
2017-Jan-19 07:00S 34°31' W 144°47'2 1.6 1021.5 20.6
2017-Jan-19 06:00S 34°31' W 144°46'1 0.8 1021.6 20.6
2017-Jan-19 05:00S 34°30' W 144°46'1 1.3 1021.2 20.7
2017-Jan-19 04:00S 34°29' W 144°47'1 0.8 1020.7 20.7
2017-Jan-19 03:00S 34°29' W 144°46'1 0.8 1020.2 20.7
2017-Jan-19 02:00S 34°29' W 144°46'2 2.4 1019.7 20.7
2017-Jan-19 01:00S 34°26' W 144°46'0 0.0 1019.9 20.7
2017-Jan-19 00:00S 34°26' W 144°46'0 0.0 1019.9 20.6
2017-Jan-18 23:00S 34°26' W 144°46'3 0.7 1020.0 20.6
2017-Jan-18 19:00S 34°26' W 144°42'0 0.0 1020.4 20.6
2017-Jan-18 18:00S 34°26' W 144°42'1 0.8 1020.4 20.6
2017-Jan-18 17:00S 34°27' W 144°43'1 0.8 1020.4 20.6
2017-Jan-18 16:00S 34°26' W 144°42'1 0.6 1020.3 20.6
2017-Jan-18 15:00S 34°26' W 144°42'0 0.0 1020.3 20.5
2017-Jan-18 14:00S 34°26' W 144°42'0 0.2 1019.5 20.5
2017-Jan-18 12:00S 34°26' W 144°43'0 0.0 1018.9 20.5
2017-Jan-18 11:00S 34°26' W 144°43'2 1.9 1019.1 20.5
2017-Jan-18 10:00S 34°24' W 144°42'0 0.0 1019.5 20.4
2017-Jan-18 09:00S 34°24' W 144°42'1 0.5 1020.0 20.4
2017-Jan-18 07:00S 34°24' W 144°41'0 0.0 1020.2 20.4
2017-Jan-18 05:00S 34°24' W 144°41'1 0.8 1020.1 20.4
2017-Jan-18 04:00S 34°23' W 144°40'0 0.0 1019.5 20.4
2017-Jan-18 03:00S 34°23' W 144°40'2 1.9 1019.1 20.5
2017-Jan-18 02:00S 34°22' W 144°38'0 0.0 1019.2 20.6
2017-Jan-18 01:00S 34°22' W 144°38'0 0.0 1019.2 20.6
2017-Jan-18 00:00S 34°22' W 144°38'0 0.0 1019.5 20.6
2017-Jan-17 23:00S 34°22' W 144°38'2 0.4 1019.6 20.6
2017-Jan-17 19:00S 34°23' W 144°37'1 0.8 1020.3 20.5
2017-Jan-17 18:00S 34°23' W 144°37'1 0.8 1020.5 20.5
2017-Jan-17 17:00S 34°23' W 144°37'1 1.5 1020.5 20.5
2017-Jan-17 16:00S 34°23' W 144°38'1 1.5 1020.2 20.5
2017-Jan-17 15:00S 34°23' W 144°37'0 0.0 1020.0 20.6
2017-Jan-17 14:00S 34°23' W 144°37'1 0.6 1019.6 20.6
2017-Jan-17 13:00S 34°22' W 144°37'1 0.8 1019.6 20.6
2017-Jan-17 12:00S 34°22' W 144°36'0 0.5 1019.8 20.6
2017-Jan-17 11:00S 34°22' W 144°37'0 0.0 1020.4 20.6
2017-Jan-17 10:00S 34°22' W 144°37'1 0.5 1020.9 20.6
2017-Jan-17 07:00S 34°22' W 144°35'0 0.5 1021.3 20.6
2017-Jan-17 06:00S 34°22' W 144°34'1 0.2 1021.0 20.6
2017-Jan-17 01:00S 34°22' W 144°34'1 0.8 1020.5 20.6
2017-Jan-17 00:00S 34°23' W 144°34'0 0.0 1020.9 20.6
2017-Jan-16 23:00S 34°23' W 144°34'1 0.1 1021.3 20.6
2017-Jan-16 19:00S 34°23' W 144°34'0 0.0 1022.0 20.5
2017-Jan-16 18:00S 34°23' W 144°34'0 0.0 1022.4 20.5
2017-Jan-16 17:00S 34°23' W 144°34'1 0.8 1022.5 20.5
2017-Jan-16 16:00S 34°24' W 144°35'1 0.8 1022.3 20.5
2017-Jan-16 15:00S 34°23' W 144°34'0 0.5 1021.8 20.6
2017-Jan-16 14:00S 34°23' W 144°35'0 0.0 1021.3 20.6
2017-Jan-16 13:00S 34°23' W 144°35'0 0.0 1021.0 20.6
2017-Jan-16 12:00S 34°23' W 144°35'0 0.5 1021.2 20.6
2017-Jan-16 11:00S 34°23' W 144°34'4 1.4 1021.6 20.6
2017-Jan-16 08:00S 34°28' W 144°33'0 0.0 1022.4 20.6
2017-Jan-16 07:00S 34°28' W 144°33'4 3.9 1022.5 20.6
2017-Jan-16 06:00S 34°24' W 144°35'1 0.3 1022.0 20.6
2017-Jan-16 04:00S 34°25' W 144°35'0 0.2 1021.1 20.6
2017-Jan-16 01:00S 34°25' W 144°35'1 0.8 1020.2 20.6
2017-Jan-16 00:00S 34°25' W 144°36'1 0.8 1020.4 20.6
2017-Jan-15 23:00S 34°25' W 144°35'1 0.2 1020.7 20.6
2017-Jan-15 19:00S 34°25' W 144°36'1 0.6 1020.6 20.6
2017-Jan-15 18:00S 34°26' W 144°36'1 0.8 1020.7 20.6
2017-Jan-15 17:00S 34°25' W 144°35'1 0.8 1020.7 20.6
2017-Jan-15 16:00S 34°26' W 144°36'0 0.0 1020.2 20.6
2017-Jan-15 15:00S 34°26' W 144°36'0 0.0 1019.5 20.6
2017-Jan-15 14:00S 34°26' W 144°36'0 0.5 1019.0 20.6
2017-Jan-15 13:00S 34°26' W 144°35'0 0.0 1018.6 20.6
2017-Jan-15 12:00S 34°26' W 144°35'0 0.0 1018.7 20.6
2017-Jan-15 11:00S 34°26' W 144°35'1 0.3 1018.9 20.6
2017-Jan-15 07:00S 34°27' W 144°35'1 0.2 1019.4 20.7
2017-Jan-15 01:00S 34°28' W 144°35'0 0.0 1018.8 20.8
2017-Jan-15 00:00S 34°28' W 144°35'0 0.5 1018.9 20.8
2017-Jan-14 23:00S 34°28' W 144°35'0 0.2 1019.3 20.8
2017-Jan-14 20:00S 34°28' W 144°34'1 0.8 1019.8 20.7
2017-Jan-14 19:00S 34°28' W 144°35'1 1.2 1020.1 20.7
2017-Jan-14 18:00S 34°28' W 144°34'1 0.8 1020.3 20.7
2017-Jan-14 17:00S 34°29' W 144°34'0 0.0 1020.2 20.7
2017-Jan-14 16:00S 34°29' W 144°34'0 0.5 1020.2 20.7
2017-Jan-14 15:00S 34°29' W 144°34'0 0.0 1019.9 20.7
2017-Jan-14 14:00S 34°29' W 144°34'0 0.0 1019.2 20.7
2017-Jan-14 13:00S 34°29' W 144°34'1 0.6 1019.1 20.7
2017-Jan-14 12:00S 34°29' W 144°34'0 0.0 1019.6 20.7
2017-Jan-14 11:00S 34°29' W 144°34'1 0.3 1019.9 20.7
2017-Jan-14 08:00S 34°29' W 144°32'0 0.0 1021.2 20.7
2017-Jan-14 07:00S 34°29' W 144°32'1 0.4 1021.2 20.7
2017-Jan-14 04:00S 34°31' W 144°32'1 0.3 1020.2 20.7
2017-Jan-14 01:00S 34°30' W 144°33'1 1.0 1019.8 20.7
2017-Jan-14 00:00S 34°30' W 144°32'0 0.0 1019.8 20.7
2017-Jan-13 23:00S 34°30' W 144°32'1 0.4 1020.2 20.7
2017-Jan-13 19:00S 34°30' W 144°30'   1021.0 20.7
Track history (hours):
 
Tides and Currents Weather Stations Pressure Air Temp Water Temp Dewpoint Dewpoint Depression Visibility Wind Speed Wind Dir Waves Ship Positions

Luruyu54955

Last reported at 2017-Jan-23 19:00 UTC. Time now 2017-Jan-23 20:51 UTC.
Position S 34°49' W 145°31'.

Length 27 m.

Type: Fishing. MMSI: 412330945.

Barometer 1013.3 mb
Water temperature 20.3 ° C

Date/timePositionNaut miles runAvg speedWind from/ knotsBaromVisibWave heightAir tempDewpointWater temp
2017-Jan-23 19:00S 34°49' W 145°31'2 1.6 1013.3 20.3
2017-Jan-23 18:00S 34°48' W 145°29'1 0.6 1013.1 20.2
2017-Jan-23 17:00S 34°49' W 145°29'1 0.6 1012.9 20.2
2017-Jan-23 16:00S 34°48' W 145°29'2 1.6 1012.4 20.2
2017-Jan-23 15:00S 34°49' W 145°28'0 0.0 1012.1 20.2
2017-Jan-23 14:00S 34°49' W 145°28'0 0.5 1011.8 20.2
2017-Jan-23 13:00S 34°49' W 145°28'0 0.5 1011.7 20.2
2017-Jan-23 12:00S 34°49' W 145°28'0 0.5 1011.7 20.2
2017-Jan-23 11:00S 34°49' W 145°27'1 0.3 1012.0 20.2
2017-Jan-23 08:00S 34°50' W 145°28'1 0.8 1012.7 20.3
2017-Jan-23 07:00S 34°49' W 145°28'0 0.0 1012.6 20.3
2017-Jan-23 06:00S 34°49' W 145°28'0 0.0 1012.3 20.3
2017-Jan-23 05:00S 34°49' W 145°28'1 0.6 1011.6 20.4
2017-Jan-23 03:00S 34°48' W 145°29'2 2.4 1010.6 20.4
2017-Jan-23 02:00S 34°46' W 145°29'0 0.0 1010.4 20.4
2017-Jan-23 01:00S 34°46' W 145°29'0 0.5 1009.9 20.4
2017-Jan-23 00:00S 34°46' W 145°28'0 0.0 1010.1 20.4
2017-Jan-22 23:00S 34°46' W 145°28'3 0.8 1009.8 20.4
2017-Jan-22 19:00S 34°44' W 145°25'1 0.8 1008.2 20.2
2017-Jan-22 18:00S 34°44' W 145°25'0 0.5 1007.6 20.1
2017-Jan-22 17:00S 34°44' W 145°25'0 0.0 1007.0 20.1
2017-Jan-22 16:00S 34°44' W 145°25'0 0.0 1006.2 20.1
2017-Jan-22 14:00S 34°44' W 145°25'0 0.0 1003.9 20.1
2017-Jan-22 13:00S 34°44' W 145°25'1 1.2 1002.7 20.1
2017-Jan-22 12:00S 34°44' W 145°26'0 0.5 1002.0 20.1
2017-Jan-22 11:00S 34°44' W 145°27'2 0.5 1001.6 20.1
2017-Jan-22 07:00S 34°42' W 145°26'2 1.9 999.8 20.2
2017-Jan-22 06:00S 34°40' W 145°26'0 0.0 999.5 20.2
2017-Jan-22 05:00S 34°40' W 145°26'1 0.8 998.6 20.2
2017-Jan-22 04:00S 34°40' W 145°25'1 1.5 997.5 20.2
2017-Jan-22 03:00S 34°40' W 145°23'2 1.6 997.4 20.2
2017-Jan-22 02:00S 34°39' W 145°22'0 0.0 997.4 20.2
2017-Jan-22 01:00S 34°39' W 145°22'1 0.8 997.9 20.2
2017-Jan-22 00:00S 34°40' W 145°21'0 0.0 999.1 20.2
2017-Jan-21 23:00S 34°40' W 145°21'5 1.2 999.7 20.2
2017-Jan-21 19:00S 34°38' W 145°16'0 0.0 1002.8 20.2
2017-Jan-21 18:00S 34°38' W 145°16'1 0.6 1003.8 20.2
2017-Jan-21 17:00S 34°39' W 145°16'2 2.5 1004.5 20.1
2017-Jan-21 16:00S 34°39' W 145°13'0 0.5 1004.8 20.1
2017-Jan-21 15:00S 34°39' W 145°13'1 0.8 1005.2 20.1
2017-Jan-21 14:00S 34°40' W 145°13'1 0.8 1005.9 20.1
2017-Jan-21 13:00S 34°39' W 145°12'0 0.0 1006.3 20.1
2017-Jan-21 12:00S 34°39' W 145°12'0 0.0 1006.9 20.1
2017-Jan-21 11:00S 34°39' W 145°12'3 1.0 1007.6 20.1
2017-Jan-21 08:00S 34°39' W 145°08'0 0.0 1009.6 20.2
2017-Jan-21 07:00S 34°39' W 145°08'1 0.8 1010.1 20.2
2017-Jan-21 06:00S 34°38' W 145°08'1 0.8 1010.3 20.2
2017-Jan-21 05:00S 34°38' W 145°07'0 0.0 1010.4 20.2
2017-Jan-21 04:00S 34°38' W 145°07'2 1.6 1010.0 20.2
2017-Jan-21 03:00S 34°37' W 145°05'0 0.0 1009.5 20.2
2017-Jan-21 02:00S 34°37' W 145°05'0 0.5 1009.7 20.3
2017-Jan-21 01:00S 34°37' W 145°05'0 0.0 1010.2 20.3
2017-Jan-21 00:00S 34°37' W 145°05'4 0.7 1010.8 20.3
2017-Jan-20 19:00S 34°37' W 145°01'2 2.1 1013.6 20.4
2017-Jan-20 18:00S 34°36' W 144°58'0 0.0 1014.0 20.4
2017-Jan-20 17:00S 34°36' W 144°58'1 1.2 1014.1 20.4
2017-Jan-20 16:00S 34°35' W 144°57'0 0.5 1013.9 20.4
2017-Jan-20 15:00S 34°35' W 144°58'3 3.5 1013.7 20.4
2017-Jan-20 14:00S 34°35' W 144°53'0 0.2 1013.6 20.5
2017-Jan-20 12:00S 34°35' W 144°54'0 0.0 1013.4 20.6
2017-Jan-20 11:00S 34°35' W 144°54'1 0.6 1013.6 20.6
2017-Jan-20 09:00S 34°34' W 144°55'1 0.8 1014.7 20.6
2017-Jan-20 08:00S 34°34' W 144°54'0 0.0 1015.2 20.7
2017-Jan-20 07:00S 34°34' W 144°54'1 0.8 1015.5 20.7
2017-Jan-20 06:00S 34°33' W 144°53'0 0.0 1015.2 20.7
2017-Jan-20 04:00S 34°33' W 144°53'0 0.5 1014.8 20.7
2017-Jan-20 03:00S 34°33' W 144°53'0 0.5 1015.0 20.7
2017-Jan-20 02:00S 34°33' W 144°52'0 0.5 1015.7 20.7
2017-Jan-20 01:00S 34°33' W 144°53'2 2.3 1016.4 20.7
2017-Jan-20 00:00S 34°32' W 144°50'0 0.0 1017.0 20.6
2017-Jan-19 19:00S 34°32' W 144°50'0 0.0 1020.4 20.6
2017-Jan-19 18:00S 34°32' W 144°50'1 1.5 1020.5 20.6
2017-Jan-19 17:00S 34°32' W 144°49'0 0.5 1020.4 20.6
2017-Jan-19 16:00S 34°32' W 144°48'1 1.0 1020.3 20.5
2017-Jan-19 15:00S 34°32' W 144°47'1 0.6 1020.4 20.5
2017-Jan-19 14:00S 34°31' W 144°47'0 0.0 1020.0 20.5
2017-Jan-19 12:00S 34°31' W 144°47'1 0.6 1020.0 20.5
2017-Jan-19 11:00S 34°32' W 144°47'1 0.2 1020.5 20.6
2017-Jan-19 08:00S 34°31' W 144°47'0 0.5 1021.5 20.6
2017-Jan-19 07:00S 34°31' W 144°47'2 1.6 1021.5 20.6
2017-Jan-19 06:00S 34°31' W 144°46'1 0.8 1021.6 20.6
2017-Jan-19 05:00S 34°30' W 144°46'1 1.3 1021.2 20.7
2017-Jan-19 04:00S 34°29' W 144°47'1 0.8 1020.7 20.7
2017-Jan-19 03:00S 34°29' W 144°46'1 0.8 1020.2 20.7
2017-Jan-19 02:00S 34°29' W 144°46'2 2.4 1019.7 20.7
2017-Jan-19 01:00S 34°26' W 144°46'0 0.0 1019.9 20.7
2017-Jan-19 00:00S 34°26' W 144°46'0 0.0 1019.9 20.6
2017-Jan-18 23:00S 34°26' W 144°46'3 0.7 1020.0 20.6
2017-Jan-18 19:00S 34°26' W 144°42'0 0.0 1020.4 20.6
2017-Jan-18 18:00S 34°26' W 144°42'1 0.8 1020.4 20.6
2017-Jan-18 17:00S 34°27' W 144°43'1 0.8 1020.4 20.6
2017-Jan-18 16:00S 34°26' W 144°42'1 0.6 1020.3 20.6
2017-Jan-18 15:00S 34°26' W 144°42'0 0.0 1020.3 20.5
2017-Jan-18 14:00S 34°26' W 144°42'0 0.2 1019.5 20.5
2017-Jan-18 12:00S 34°26' W 144°43'0 0.0 1018.9 20.5
2017-Jan-18 11:00S 34°26' W 144°43'2 1.9 1019.1 20.5
2017-Jan-18 10:00S 34°24' W 144°42'0 0.0 1019.5 20.4
2017-Jan-18 09:00S 34°24' W 144°42'1 0.5 1020.0 20.4
2017-Jan-18 07:00S 34°24' W 144°41'0 0.0 1020.2 20.4
2017-Jan-18 05:00S 34°24' W 144°41'1 0.8 1020.1 20.4
2017-Jan-18 04:00S 34°23' W 144°40'0 0.0 1019.5 20.4
2017-Jan-18 03:00S 34°23' W 144°40'2 1.9 1019.1 20.5
2017-Jan-18 02:00S 34°22' W 144°38'0 0.0 1019.2 20.6
2017-Jan-18 01:00S 34°22' W 144°38'0 0.0 1019.2 20.6
2017-Jan-18 00:00S 34°22' W 144°38'0 0.0 1019.5 20.6
2017-Jan-17 23:00S 34°22' W 144°38'2 0.4 1019.6 20.6
2017-Jan-17 19:00S 34°23' W 144°37'1 0.8 1020.3 20.5
2017-Jan-17 18:00S 34°23' W 144°37'1 0.8 1020.5 20.5
2017-Jan-17 17:00S 34°23' W 144°37'1 1.5 1020.5 20.5
2017-Jan-17 16:00S 34°23' W 144°38'1 1.5 1020.2 20.5
2017-Jan-17 15:00S 34°23' W 144°37'0 0.0 1020.0 20.6
2017-Jan-17 14:00S 34°23' W 144°37'1 0.6 1019.6 20.6
2017-Jan-17 13:00S 34°22' W 144°37'1 0.8 1019.6 20.6
2017-Jan-17 12:00S 34°22' W 144°36'0 0.5 1019.8 20.6
2017-Jan-17 11:00S 34°22' W 144°37'0 0.0 1020.4 20.6
2017-Jan-17 10:00S 34°22' W 144°37'1 0.5 1020.9 20.6
2017-Jan-17 07:00S 34°22' W 144°35'0 0.5 1021.3 20.6
2017-Jan-17 06:00S 34°22' W 144°34'1 0.2 1021.0 20.6
2017-Jan-17 01:00S 34°22' W 144°34'1 0.8 1020.5 20.6
2017-Jan-17 00:00S 34°23' W 144°34'0 0.0 1020.9 20.6
2017-Jan-16 23:00S 34°23' W 144°34'1 0.1 1021.3 20.6
2017-Jan-16 19:00S 34°23' W 144°34'0 0.0 1022.0 20.5
2017-Jan-16 18:00S 34°23' W 144°34'0 0.0 1022.4 20.5
2017-Jan-16 17:00S 34°23' W 144°34'1 0.8 1022.5 20.5
2017-Jan-16 16:00S 34°24' W 144°35'1 0.8 1022.3 20.5
2017-Jan-16 15:00S 34°23' W 144°34'0 0.5 1021.8 20.6
2017-Jan-16 14:00S 34°23' W 144°35'0 0.0 1021.3 20.6
2017-Jan-16 13:00S 34°23' W 144°35'0 0.0 1021.0 20.6
2017-Jan-16 12:00S 34°23' W 144°35'0 0.5 1021.2 20.6
2017-Jan-16 11:00S 34°23' W 144°34'4 1.4 1021.6 20.6
2017-Jan-16 08:00S 34°28' W 144°33'0 0.0 1022.4 20.6
2017-Jan-16 07:00S 34°28' W 144°33'4 3.9 1022.5 20.6
2017-Jan-16 06:00S 34°24' W 144°35'1 0.3 1022.0 20.6
2017-Jan-16 04:00S 34°25' W 144°35'0 0.2 1021.1 20.6
2017-Jan-16 01:00S 34°25' W 144°35'1 0.8 1020.2 20.6
2017-Jan-16 00:00S 34°25' W 144°36'1 0.8 1020.4 20.6
2017-Jan-15 23:00S 34°25' W 144°35'1 0.2 1020.7 20.6
2017-Jan-15 19:00S 34°25' W 144°36'1 0.6 1020.6 20.6
2017-Jan-15 18:00S 34°26' W 144°36'1 0.8 1020.7 20.6
2017-Jan-15 17:00S 34°25' W 144°35'1 0.8 1020.7 20.6
2017-Jan-15 16:00S 34°26' W 144°36'0 0.0 1020.2 20.6
2017-Jan-15 15:00S 34°26' W 144°36'0 0.0 1019.5 20.6
2017-Jan-15 14:00S 34°26' W 144°36'0 0.5 1019.0 20.6
2017-Jan-15 13:00S 34°26' W 144°35'0 0.0 1018.6 20.6
2017-Jan-15 12:00S 34°26' W 144°35'0 0.0 1018.7 20.6
2017-Jan-15 11:00S 34°26' W 144°35'1 0.3 1018.9 20.6
2017-Jan-15 07:00S 34°27' W 144°35'1 0.2 1019.4 20.7
2017-Jan-15 01:00S 34°28' W 144°35'0 0.0 1018.8 20.8
2017-Jan-15 00:00S 34°28' W 144°35'0 0.5 1018.9 20.8
2017-Jan-14 23:00S 34°28' W 144°35'0 0.2 1019.3 20.8
2017-Jan-14 20:00S 34°28' W 144°34'1 0.8 1019.8 20.7
2017-Jan-14 19:00S 34°28' W 144°35'1 1.2 1020.1 20.7
2017-Jan-14 18:00S 34°28' W 144°34'1 0.8 1020.3 20.7
2017-Jan-14 17:00S 34°29' W 144°34'0 0.0 1020.2 20.7
2017-Jan-14 16:00S 34°29' W 144°34'0 0.5 1020.2 20.7
2017-Jan-14 15:00S 34°29' W 144°34'0 0.0 1019.9 20.7
2017-Jan-14 14:00S 34°29' W 144°34'0 0.0 1019.2 20.7
2017-Jan-14 13:00S 34°29' W 144°34'1 0.6 1019.1 20.7
2017-Jan-14 12:00S 34°29' W 144°34'0 0.0 1019.6 20.7
2017-Jan-14 11:00S 34°29' W 144°34'1 0.3 1019.9 20.7
2017-Jan-14 08:00S 34°29' W 144°32'0 0.0 1021.2 20.7
2017-Jan-14 07:00S 34°29' W 144°32'1 0.4 1021.2 20.7
2017-Jan-14 04:00S 34°31' W 144°32'1 0.3 1020.2 20.7
2017-Jan-14 01:00S 34°30' W 144°33'1 1.0 1019.8 20.7
2017-Jan-14 00:00S 34°30' W 144°32'0 0.0 1019.8 20.7
2017-Jan-13 23:00S 34°30' W 144°32'1 0.4 1020.2 20.7
2017-Jan-13 19:00S 34°30' W 144°30'   1021.0 20.7

Dump ship's entire track history